Time;durP1;ratioP1;P1;durP2;ratioP2;P2;SDS_P1;SDS_P2;PMS_P1;PMS_P2;Temp;Humidity;BMP_temperature;BMP_pressure;BME280_temperature;BME280_humidity;BME280_pressure;Samples;Min_cycle;Max_cycle;Signal;HPM_P1;HPM_P2
2022/06/01 00:02:08;;;;;;;19.58;15.27;;;;;;;;;;5015206;28;20054;-75
2022/06/01 00:04:38;;;;;;;18.08;14.73;;;;;;;;;;5014468;28;20133;-75
2022/06/01 00:07:07;;;;;;;17.33;14.23;;;;;;;;;;5014710;28;20501;-75
2022/06/01 00:09:37;;;;;;;23.92;15.80;;;;;;;;;;5014730;28;20056;-75
2022/06/01 00:12:09;;;;;;;17.92;15.60;;;;;;;;;;5014313;28;20578;-75
2022/06/01 00:14:39;;;;;;;24.23;15.15;;;;;;;;;;5014734;28;20096;-75
2022/06/01 00:17:10;;;;;;;15.70;14.10;;;;;;;;;;5013894;28;20096;-75
2022/06/01 00:19:43;;;;;;;16.35;14.65;;;;;;;;;;5014691;28;20045;-76
2022/06/01 00:22:17;;;;;;;22.95;14.48;;;;;;;;;;5014157;28;20080;-75
2022/06/01 00:24:47;;;;;;;18.45;13.65;;;;;;;;;;5008142;28;20053;-75
2022/06/01 00:27:17;;;;;;;15.18;12.43;;;;;;;;;;5014295;28;20057;-75
2022/06/01 00:29:47;;;;;;;19.50;14.80;;;;;;;;;;4991414;28;20045;-75
2022/06/01 00:32:17;;;;;;;19.98;14.88;;;;;;;;;;5014206;28;20038;-75
2022/06/01 00:34:46;;;;;;;18.40;15.18;;;;;;;;;;5013464;28;20045;-75
2022/06/01 00:37:17;;;;;;;17.60;13.98;;;;;;;;;;5014376;28;20057;-75
2022/06/01 00:39:47;;;;;;;18.83;15.23;;;;;;;;;;5013856;28;20053;-75
2022/06/01 00:42:25;;;;;;;20.67;14.65;;;;;;;;;;5014162;28;20058;-75
2022/06/01 00:44:56;;;;;;;19.83;15.82;;;;;;;;;;5013782;28;20184;-75
2022/06/01 00:47:28;;;;;;;21.80;14.35;;;;;;;;;;5014100;28;20116;-75
2022/06/01 00:50:21;;;;;;;18.83;15.02;;;;;;;;;;5013782;28;20045;-75
2022/06/01 00:52:56;;;;;;;17.95;14.65;;;;;;;;;;5009500;28;20100;-75
2022/06/01 00:55:33;;;;;;;16.50;14.38;;;;;;;;;;5013642;28;20053;-75
2022/06/01 00:58:19;;;;;;;29.02;15.60;;;;;;;;;;5010631;28;20568;-75
2022/06/01 01:00:50;;;;;;;20.45;15.73;;;;;;;;;;5012887;28;20072;-75
2022/06/01 01:03:20;;;;;;;22.92;16.45;;;;;;;;;;5006848;28;20084;-75
2022/06/01 01:06:00;;;;;;;15.68;14.10;;;;;;;;;;5013542;28;20049;-75
2022/06/01 01:08:32;;;;;;;19.95;14.95;;;;;;;;;;5012850;28;20050;-75
2022/06/01 01:11:12;;;;;;;18.95;16.08;;;;;;;;;;5011061;28;20057;-75
2022/06/01 01:13:45;;;;;;;17.65;15.85;;;;;;;;;;5013523;28;20057;-74
2022/06/01 01:16:14;;;;;;;19.80;15.48;;;;;;;;;;5013625;28;20085;-74
2022/06/01 01:18:46;;;;;;;18.73;15.85;;;;;;;;;;5013192;28;20145;-75
2022/06/01 01:22:01;;;;;;;22.23;16.15;;;;;;;;;;4992713;28;20057;-74
2022/06/01 01:24:55;;;;;;;18.98;16.95;;;;;;;;;;4983653;28;20058;-74
2022/06/01 01:27:26;;;;;;;17.42;15.07;;;;;;;;;;5010711;28;20127;-74
2022/06/01 01:29:56;;;;;;;18.20;15.07;;;;;;;;;;5013575;28;20046;-74
2022/06/01 01:32:26;;;;;;;20.23;16.52;;;;;;;;;;5013532;28;20576;-74
2022/06/01 01:34:56;;;;;;;17.95;15.88;;;;;;;;;;5013158;28;20053;-74
2022/06/01 01:37:26;;;;;;;18.67;16.05;;;;;;;;;;5013515;28;20054;-74
2022/06/01 01:39:56;;;;;;;20.65;14.77;;;;;;;;;;5013132;28;20136;-74
2022/06/01 01:42:26;;;;;;;19.23;14.60;;;;;;;;;;5013661;28;20053;-74
2022/06/01 01:45:04;;;;;;;18.88;15.63;;;;;;;;;;5012992;28;20050;-74
2022/06/01 01:47:39;;;;;;;23.60;15.50;;;;;;;;;;4991772;28;20045;-74
2022/06/01 01:50:09;;;;;;;16.38;13.85;;;;;;;;;;5013399;28;20400;-74
2022/06/01 01:52:39;;;;;;;16.77;13.75;;;;;;;;;;5013002;28;20489;-74
2022/06/01 01:55:16;;;;;;;13.85;12.48;;;;;;;;;;5013014;28;20038;-74
2022/06/01 01:58:17;;;;;;;17.23;13.52;;;;;;;;;;5012776;28;20092;-74
2022/06/01 02:00:51;;;;;;;16.45;12.32;;;;;;;;;;5013353;28;20153;-74
2022/06/01 02:03:38;;;;;;;19.73;13.15;;;;;;;;;;5011741;28;20611;-73
2022/06/01 02:06:21;;;;;;;18.77;14.40;;;;;;;;;;4998052;28;20401;-73
2022/06/01 02:08:54;;;;;;;18.70;12.07;;;;;;;;;;5012694;28;20054;-74
2022/06/01 02:14:26;;;;;;;15.48;12.63;;;;;;;;;;4998497;28;20046;-75
2022/06/01 02:17:14;;;;;;;18.35;13.02;;;;;;;;;;5002009;28;20054;-75
2022/06/01 02:20:16;;;;;;;20.00;13.15;;;;;;;;;;5010906;28;20069;-75
2022/06/01 02:22:48;;;;;;;17.83;11.93;;;;;;;;;;5000865;28;20053;-75
2022/06/01 02:25:19;;;;;;;18.33;13.48;;;;;;;;;;5012358;28;20141;-74
2022/06/01 02:27:50;;;;;;;15.35;12.68;;;;;;;;;;5013095;28;20053;-74
2022/06/01 02:30:33;;;;;;;18.60;12.65;;;;;;;;;;5012760;28;20050;-74
2022/06/01 02:33:03;;;;;;;14.65;12.80;;;;;;;;;;5001506;28;20076;-75
2022/06/01 02:35:36;;;;;;;15.73;13.10;;;;;;;;;;5015164;28;20042;-75
2022/06/01 02:38:10;;;;;;;16.70;12.63;;;;;;;;;;5016591;28;20089;-75
2022/06/01 02:40:40;;;;;;;14.23;12.00;;;;;;;;;;5000805;28;20129;-75
2022/06/01 02:43:11;;;;;;;14.88;13.38;;;;;;;;;;5016223;28;20128;-75
2022/06/01 02:45:42;;;;;;;17.38;12.57;;;;;;;;;;5016540;28;20554;-75
2022/06/01 02:48:10;;;;;;;16.67;12.30;;;;;;;;;;5016003;28;20050;-75
2022/06/01 02:50:40;;;;;;;21.15;13.32;;;;;;;;;;5015131;28;20049;-75
2022/06/01 02:53:09;;;;;;;20.05;13.38;;;;;;;;;;5015828;28;20432;-75
2022/06/01 02:55:38;;;;;;;14.85;11.55;;;;;;;;;;5016249;28;20037;-74
2022/06/01 02:58:08;;;;;;;13.88;11.73;;;;;;;;;;5015478;28;20053;-74
2022/06/01 03:00:40;;;;;;;13.70;12.30;;;;;;;;;;5016096;28;20050;-73
2022/06/01 03:03:11;;;;;;;18.67;13.20;;;;;;;;;;5016140;28;20079;-74
2022/06/01 03:05:41;;;;;;;21.50;12.27;;;;;;;;;;5015310;28;20125;-73
2022/06/01 03:08:11;;;;;;;29.23;15.73;;;;;;;;;;5016160;28;20045;-75
2022/06/01 03:10:42;;;;;;;16.15;13.32;;;;;;;;;;5015607;28;20046;-75
2022/06/01 03:13:22;;;;;;;28.50;12.70;;;;;;;;;;5016137;28;20060;-75
2022/06/01 03:15:53;;;;;;;14.07;12.63;;;;;;;;;;5015318;28;20077;-75
2022/06/01 03:18:23;;;;;;;16.77;13.15;;;;;;;;;;5009829;28;20060;-75
2022/06/01 03:20:53;;;;;;;27.05;15.10;;;;;;;;;;5012169;28;20050;-75
2022/06/01 03:23:25;;;;;;;18.88;13.68;;;;;;;;;;4999991;28;20053;-75
2022/06/01 03:25:55;;;;;;;24.38;14.88;;;;;;;;;;5015316;28;20119;-75
2022/06/01 03:28:29;;;;;;;17.33;15.40;;;;;;;;;;5015511;28;20042;-74
2022/06/01 03:30:58;;;;;;;23.27;15.55;;;;;;;;;;5015236;28;20737;-74
2022/06/01 03:33:29;;;;;;;17.70;14.82;;;;;;;;;;5015183;28;20111;-74
2022/06/01 03:36:00;;;;;;;17.13;14.82;;;;;;;;;;5015351;28;20410;-74
2022/06/01 03:38:29;;;;;;;16.70;13.57;;;;;;;;;;5015003;28;20050;-75
2022/06/01 03:40:59;;;;;;;21.20;16.20;;;;;;;;;;5015144;28;20049;-74
2022/06/01 03:43:29;;;;;;;16.05;13.32;;;;;;;;;;5014712;28;20056;-74
2022/06/01 03:45:59;;;;;;;19.58;14.55;;;;;;;;;;5015038;28;20049;-75
2022/06/01 03:48:33;;;;;;;14.90;12.45;;;;;;;;;;5014440;28;20054;-74
2022/06/01 03:51:04;;;;;;;23.02;13.23;;;;;;;;;;5015326;28;20050;-74
2022/06/01 03:53:35;;;;;;;17.95;13.45;;;;;;;;;;5014472;28;20053;-74
2022/06/01 03:56:08;;;;;;;24.50;15.27;;;;;;;;;;5015000;28;20056;-74
2022/06/01 03:58:37;;;;;;;22.25;15.98;;;;;;;;;;5014850;28;20064;-74
2022/06/01 04:01:07;;;;;;;20.10;14.40;;;;;;;;;;5014452;28;20069;-73
2022/06/01 04:03:37;;;;;;;16.40;13.77;;;;;;;;;;5015407;28;20140;-74
2022/06/01 04:06:07;;;;;;;19.13;15.32;;;;;;;;;;5014413;28;20488;-73
2022/06/01 04:08:36;;;;;;;16.23;14.25;;;;;;;;;;5015216;28;20493;-74
2022/06/01 04:11:06;;;;;;;17.02;14.23;;;;;;;;;;5010528;28;20052;-74
2022/06/01 04:13:36;;;;;;;17.75;14.95;;;;;;;;;;5014464;28;20069;-73
2022/06/01 04:16:06;;;;;;;16.55;14.48;;;;;;;;;;5014427;28;20054;-74
2022/06/01 04:18:47;;;;;;;19.17;13.80;;;;;;;;;;5014742;28;20060;-74
2022/06/01 04:21:21;;;;;;;25.40;15.02;;;;;;;;;;5014483;28;20133;-74
2022/06/01 04:23:51;;;;;;;18.48;14.38;;;;;;;;;;4993467;28;20054;-74
2022/06/01 04:26:22;;;;;;;20.88;13.50;;;;;;;;;;4994884;28;20109;-70
2022/06/01 04:28:56;;;;;;;20.15;14.80;;;;;;;;;;4993554;28;20050;-71
2022/06/01 04:31:25;;;;;;;22.95;15.90;;;;;;;;;;4988622;28;20046;-72
2022/06/01 04:33:55;;;;;;;19.95;13.95;;;;;;;;;;4994176;28;20508;-69
2022/06/01 04:36:25;;;;;;;17.45;13.75;;;;;;;;;;4994435;28;20046;-69
2022/06/01 04:38:53;;;;;;;33.80;14.65;;;;;;;;;;4991472;28;20060;-68
2022/06/01 04:41:22;;;;;;;19.02;14.27;;;;;;;;;;4994590;28;20566;-69
2022/06/01 04:43:51;;;;;;;17.20;12.88;;;;;;;;;;4994291;28;20132;-69
2022/06/01 04:46:22;;;;;;;21.83;13.15;;;;;;;;;;4994080;28;20050;-69
2022/06/01 04:48:54;;;;;;;16.55;14.15;;;;;;;;;;4993940;28;20046;-69
2022/06/01 04:51:25;;;;;;;17.50;12.52;;;;;;;;;;4994047;28;20057;-69
2022/06/01 04:53:56;;;;;;;19.05;12.32;;;;;;;;;;4992397;28;20058;-69
2022/06/01 04:56:27;;;;;;;19.90;13.15;;;;;;;;;;4993807;28;20104;-68
2022/06/01 04:58:57;;;;;;;20.00;12.90;;;;;;;;;;4994457;28;20393;-69
2022/06/01 05:01:26;;;;;;;16.52;12.13;;;;;;;;;;4993469;28;20062;-64
2022/06/01 05:03:56;;;;;;;19.35;13.70;;;;;;;;;;4993142;28;20070;-68
2022/06/01 05:06:26;;;;;;;22.30;15.05;;;;;;;;;;4993525;28;20214;-68
2022/06/01 05:08:57;;;;;;;17.77;14.15;;;;;;;;;;4992861;28;20056;-68
2022/06/01 05:11:27;;;;;;;18.45;14.55;;;;;;;;;;4992124;28;20114;-68
2022/06/01 05:13:56;;;;;;;18.95;13.40;;;;;;;;;;4992425;28;20053;-69
2022/06/01 05:16:27;;;;;;;16.95;15.25;;;;;;;;;;4992842;28;20103;-69
2022/06/01 05:18:57;;;;;;;20.48;16.33;;;;;;;;;;4990284;28;20062;-67
2022/06/01 05:21:28;;;;;;;16.90;15.05;;;;;;;;;;4992077;28;20058;-67
2022/06/01 05:23:58;;;;;;;18.00;15.25;;;;;;;;;;4999586;28;20463;-67
2022/06/01 05:26:27;;;;;;;17.15;15.40;;;;;;;;;;5013237;28;20112;-67
2022/06/01 05:28:59;;;;;;;19.05;15.68;;;;;;;;;;5011301;28;20100;-67
2022/06/01 05:31:28;;;;;;;25.75;16.75;;;;;;;;;;5011667;28;20061;-67
2022/06/01 05:33:57;;;;;;;23.08;15.32;;;;;;;;;;5006012;28;20524;-67
2022/06/01 05:36:29;;;;;;;25.00;15.95;;;;;;;;;;5011332;28;20061;-67
2022/06/01 05:38:59;;;;;;;30.92;15.32;;;;;;;;;;5011692;28;20096;-67
2022/06/01 05:41:29;;;;;;;20.80;16.15;;;;;;;;;;5010655;28;20049;-67
2022/06/01 05:44:00;;;;;;;18.02;16.17;;;;;;;;;;5011459;28;20053;-67
2022/06/01 05:46:30;;;;;;;20.77;13.85;;;;;;;;;;5011227;28;20065;-67
2022/06/01 05:49:03;;;;;;;18.90;14.52;;;;;;;;;;5011855;28;20082;-70
2022/06/01 05:51:35;;;;;;;25.27;14.20;;;;;;;;;;5011816;28;20408;-67
2022/06/01 05:54:05;;;;;;;24.40;14.48;;;;;;;;;;5012969;28;20049;-67
2022/06/01 05:56:34;;;;;;;32.17;15.00;;;;;;;;;;4993756;28;20413;-67
2022/06/01 05:59:04;;;;;;;18.95;14.32;;;;;;;;;;4993287;28;20454;-67
2022/06/01 06:01:33;;;;;;;30.92;17.42;;;;;;;;;;5004250;28;20133;-67
2022/06/01 06:04:02;;;;;;;27.23;17.60;;;;;;;;;;5013335;28;20081;-67
2022/06/01 06:06:30;;;;;;;23.80;17.95;;;;;;;;;;5016860;28;20100;-67
2022/06/01 06:09:03;;;;;;;28.27;16.98;;;;;;;;;;5016634;28;20543;-67
2022/06/01 06:11:35;;;;;;;;;;;;;;;;;;5017662;28;20073;-66
2022/06/01 06:14:05;;;;;;;25.13;17.38;;;;;;;;;;5016906;28;19921;-69
2022/06/01 06:16:42;;;;;;;21.38;16.70;;;;;;;;;;5016791;28;20508;-67
2022/06/01 06:19:31;;;;;;;22.98;17.35;;;;;;;;;;5000140;28;20199;-66
2022/06/01 06:22:03;;;;;;;18.30;16.40;;;;;;;;;;4998154;28;20054;-67
2022/06/01 06:24:33;;;;;;;23.35;16.27;;;;;;;;;;5015094;28;20057;-68
2022/06/01 06:27:03;;;;;;;23.70;17.38;;;;;;;;;;5015280;28;20054;-67
2022/06/01 06:29:35;;;;;;;22.90;16.55;;;;;;;;;;5016521;28;20509;-67
2022/06/01 06:32:08;;;;;;;20.70;16.58;;;;;;;;;;5015634;28;20062;-67
2022/06/01 06:34:39;;;;;;;18.42;16.42;;;;;;;;;;5016249;28;20180;-68
2022/06/01 06:37:10;;;;;;;18.45;16.27;;;;;;;;;;5015427;28;20058;-67
2022/06/01 06:39:40;;;;;;;20.42;12.77;;;;;;;;;;4999214;28;20042;-67
2022/06/01 06:42:09;;;;;;;14.10;12.38;;;;;;;;;;5015358;28;20053;-68
2022/06/01 06:44:38;;;;;;;16.83;11.02;;;;;;;;;;5014362;28;20046;-69
2022/06/01 06:47:08;;;;;;;16.90;11.25;;;;;;;;;;5014482;28;20053;-69
2022/06/01 06:49:38;;;;;;;14.68;9.77;;;;;;;;;;5014083;28;20416;-69
2022/06/01 06:52:08;;;;;;;11.95;8.38;;;;;;;;;;5014320;28;20509;-69
2022/06/01 06:54:39;;;;;;;13.23;9.13;;;;;;;;;;5013713;28;20445;-69
2022/06/01 06:57:10;;;;;;;13.35;10.52;;;;;;;;;;5007024;28;20053;-69
2022/06/01 06:59:41;;;;;;;13.25;10.27;;;;;;;;;;5015107;28;20049;-69
2022/06/01 07:02:13;;;;;;;14.00;12.20;;;;;;;;;;5014597;28;20046;-69
2022/06/01 07:04:42;;;;;;;17.67;11.65;;;;;;;;;;5009644;28;20583;-68
2022/06/01 07:07:18;;;;;;;14.18;11.90;;;;;;;;;;5012272;28;20453;-68
2022/06/01 07:09:47;;;;;;;18.23;11.85;;;;;;;;;;5014927;28;20137;-69
2022/06/01 07:12:16;;;;;;;18.30;12.82;;;;;;;;;;5011050;28;20116;-68
2022/06/01 07:14:47;;;;;;;14.10;12.75;;;;;;;;;;5015483;28;20042;-69
2022/06/01 07:17:18;;;;;;;15.30;13.25;;;;;;;;;;5014466;28;20079;-68
2022/06/01 07:19:48;;;;;;;18.60;14.55;;;;;;;;;;5013831;28;20056;-69
2022/06/01 07:22:18;;;;;;;22.42;14.55;;;;;;;;;;5012049;28;20087;-69
2022/06/01 07:24:47;;;;;;;16.77;14.65;;;;;;;;;;5014681;28;20436;-69
2022/06/01 07:27:18;;;;;;;18.85;13.70;;;;;;;;;;5012145;28;20077;-69
2022/06/01 07:29:49;;;;;;;15.10;13.55;;;;;;;;;;5014666;28;20104;-69
2022/06/01 07:32:19;;;;;;;19.75;13.38;;;;;;;;;;5014247;28;20386;-69
2022/06/01 07:34:49;;;;;;;17.30;15.40;;;;;;;;;;5014954;28;20558;-68
2022/06/01 07:43:06;;;;;;;19.75;14.75;;;;;;;;;;5015158;28;20061;-69
2022/06/01 07:45:39;;;;;;;16.02;14.45;;;;;;;;;;5012325;28;20038;-69
2022/06/01 07:48:09;;;;;;;18.98;16.15;;;;;;;;;;5010749;28;20053;-69
2022/06/01 07:50:58;;;;;;;18.02;14.88;;;;;;;;;;5011561;28;20050;-69
2022/06/01 07:53:28;;;;;;;17.10;14.30;;;;;;;;;;5010368;28;20092;-69
2022/06/01 07:55:57;;;;;;;15.35;13.15;;;;;;;;;;5014086;28;20096;-69
2022/06/01 07:58:30;;;;;;;17.33;15.52;;;;;;;;;;5014547;28;20049;-69
2022/06/01 08:01:01;;;;;;;16.50;13.32;;;;;;;;;;5014079;28;20520;-69
2022/06/01 08:03:30;;;;;;;15.68;13.52;;;;;;;;;;5009472;28;20496;-68
2022/06/01 08:05:59;;;;;;;15.82;12.00;;;;;;;;;;5013968;28;20468;-69
2022/06/01 08:08:29;;;;;;;13.77;11.65;;;;;;;;;;5008152;28;20046;-69
2022/06/01 08:11:00;;;;;;;14.75;12.85;;;;;;;;;;5014728;28;20448;-69
2022/06/01 08:13:30;;;;;;;18.25;11.90;;;;;;;;;;5002134;28;20104;-69
2022/06/01 08:16:02;;;;;;;18.13;11.70;;;;;;;;;;5013987;28;20515;-69
2022/06/01 08:18:35;;;;;;;20.50;12.15;;;;;;;;;;5013976;28;20049;-69
2022/06/01 08:21:09;;;;;;;13.98;12.43;;;;;;;;;;5013985;28;20485;-69
2022/06/01 08:23:39;;;;;;;20.77;11.82;;;;;;;;;;5014008;28;20160;-68
2022/06/01 08:26:09;;;;;;;14.13;10.98;;;;;;;;;;5014635;28;20124;-69
2022/06/01 08:28:40;;;;;;;15.30;10.63;;;;;;;;;;5012455;28;20049;-68
2022/06/01 08:31:09;;;;;;;12.65;10.98;;;;;;;;;;5014291;28;20042;-68
2022/06/01 08:33:38;;;;;;;10.77;9.77;;;;;;;;;;5013900;28;20049;-68
2022/06/01 08:36:09;;;;;;;20.02;11.68;;;;;;;;;;5014193;28;20042;-68
2022/06/01 08:38:38;;;;;;;11.85;10.48;;;;;;;;;;5014227;28;20053;-68
2022/06/01 08:41:11;;;;;;;17.25;12.85;;;;;;;;;;5012508;28;20048;-68
2022/06/01 08:43:46;;;;;;;16.77;11.13;;;;;;;;;;5013450;28;20038;-68
2022/06/01 08:46:18;;;;;;;15.10;11.88;;;;;;;;;;5012903;28;20092;-69
2022/06/01 08:48:50;;;;;;;20.40;11.63;;;;;;;;;;5013434;28;20042;-68
2022/06/01 08:51:23;;;;;;;18.85;11.70;;;;;;;;;;5011513;28;20108;-69
2022/06/01 08:53:56;;;;;;;20.73;11.07;;;;;;;;;;5013128;28;20049;-68
2022/06/01 08:56:31;;;;;;;17.48;11.60;;;;;;;;;;5012380;28;20042;-68
2022/06/01 08:58:58;;;;;;;19.80;10.55;;;;;;;;;;4995794;28;20046;-69
2022/06/01 09:02:05;;;;;;;11.40;9.98;;;;;;;;;;5012418;28;20042;-69
2022/06/01 09:05:11;;;;;;;13.70;10.43;;;;;;;;;;5010177;28;20060;-69
2022/06/01 09:08:10;;;;;;;12.75;10.05;;;;;;;;;;4992171;28;20041;-69
2022/06/01 09:11:04;;;;;;;11.50;7.63;;;;;;;;;;5012393;28;20112;-69
2022/06/01 09:13:38;;;;;;;;;;;;;;;;;;5010949;28;20131;-69
2022/06/01 09:16:37;;;;;;;10.93;7.27;;;;;;;;;;5013009;28;19922;-69
2022/06/01 09:19:22;;;;;;;10.27;7.18;;;;;;;;;;4995551;28;20656;-69
2022/06/01 09:24:44;;;;;;;9.10;6.57;;;;;;;;;;5010579;28;20058;-69
2022/06/01 09:27:15;;;;;;;8.73;6.25;;;;;;;;;;5012575;28;20041;-69
2022/06/01 09:29:43;;;;;;;7.57;4.05;;;;;;;;;;5012545;28;20092;-68
2022/06/01 09:32:33;;;;;;;9.85;5.63;;;;;;;;;;5006612;28;20058;-68
2022/06/01 09:35:08;;;;;;;18.35;5.03;;;;;;;;;;5010885;28;20050;-69
2022/06/01 09:37:46;;;;;;;10.85;5.18;;;;;;;;;;5013630;28;20049;-68
2022/06/01 09:40:29;;;;;;;7.18;3.97;;;;;;;;;;5016493;28;20104;-68
2022/06/01 09:43:00;;;;;;;6.60;2.88;;;;;;;;;;5016949;28;20061;-69
2022/06/01 09:45:38;;;;;;;10.40;3.15;;;;;;;;;;5016846;28;20092;-69
2022/06/01 09:48:21;;;;;;;9.15;3.08;;;;;;;;;;5016551;28;20041;-69
2022/06/01 09:51:08;;;;;;;9.25;3.72;;;;;;;;;;5006895;28;20052;-69
2022/06/01 09:54:14;;;;;;;9.85;4.72;;;;;;;;;;5016941;28;20041;-69
2022/06/01 09:56:48;;;;;;;8.38;3.95;;;;;;;;;;4995423;28;20058;-69
2022/06/01 10:08:14;;;;;;;16.92;6.57;;;;;;;;;;5015626;28;20045;-70
2022/06/01 10:10:58;;;;;;;11.20;5.88;;;;;;;;;;4999559;28;20056;-72
2022/06/01 10:13:35;;;;;;;8.25;5.90;;;;;;;;;;5016360;28;20044;-70
2022/06/01 10:16:35;;;;;;;12.90;5.70;;;;;;;;;;5015721;28;20060;-69
2022/06/01 10:19:11;;;;;;;17.95;7.03;;;;;;;;;;4981684;28;20128;-70
2022/06/01 10:21:50;;;;;;;10.13;6.03;;;;;;;;;;4999252;28;20053;-71
2022/06/01 10:24:42;;;;;;;10.80;7.30;;;;;;;;;;4998811;28;20564;-71
2022/06/01 10:27:13;;;;;;;10.88;5.75;;;;;;;;;;5015816;28;20116;-71
2022/06/01 10:29:50;;;;;;;8.20;5.45;;;;;;;;;;5016726;28;20042;-72
2022/06/01 10:32:56;;;;;;;15.02;7.43;;;;;;;;;;5013805;28;20069;-71
2022/06/01 10:35:40;;;;;;;10.48;5.88;;;;;;;;;;5012524;28;20058;-71
2022/06/01 10:38:17;;;;;;;13.10;6.28;;;;;;;;;;5015928;28;20045;-71
2022/06/01 10:41:13;;;;;;;12.10;7.30;;;;;;;;;;4999513;28;20132;-71
2022/06/01 10:43:57;;;;;;;10.95;6.45;;;;;;;;;;5014167;28;20061;-71
2022/06/01 10:46:30;;;;;;;10.18;6.25;;;;;;;;;;5015602;28;20405;-71
2022/06/01 10:49:14;;;;;;;7.90;5.55;;;;;;;;;;5015504;28;20062;-70
2022/06/01 10:52:04;;;;;;;7.93;6.35;;;;;;;;;;5015315;28;20046;-71
2022/06/01 10:55:14;;;;;;;13.77;7.03;;;;;;;;;;4986748;28;20054;-72
2022/06/01 10:57:48;;;;;;;11.52;6.30;;;;;;;;;;4988608;28;20080;-70
2022/06/01 11:00:18;;;;;;;;;;;;;;;;;;5005168;28;20064;-71
2022/06/01 11:02:55;;;;;;;7.13;4.95;;;;;;;;;;5010687;28;19936;-71
2022/06/01 11:05:31;;;;;;;11.82;5.95;;;;;;;;;;5015754;28;20054;-71
2022/06/01 11:08:11;;;;;;;10.15;5.30;;;;;;;;;;5015839;28;20046;-70
2022/06/01 11:10:45;;;;;;;11.65;5.97;;;;;;;;;;5000825;28;20041;-71
2022/06/01 11:13:37;;;;;;;9.80;4.95;;;;;;;;;;4996733;28;20089;-70
2022/06/01 11:16:41;;;;;;;8.45;5.25;;;;;;;;;;5002229;28;20053;-71
2022/06/01 11:19:29;;;;;;;10.23;5.82;;;;;;;;;;5015708;28;20049;-71
2022/06/01 11:22:28;;;;;;;8.05;6.13;;;;;;;;;;5014215;28;20405;-70
2022/06/01 11:25:25;;;;;;;10.70;7.28;;;;;;;;;;5014581;28;20123;-71
2022/06/01 11:28:01;;;;;;;8.73;6.00;;;;;;;;;;5013041;28;20081;-71
2022/06/01 11:31:03;;;;;;;10.23;6.07;;;;;;;;;;5014865;28;20046;-71
2022/06/01 11:33:41;;;;;;;12.95;6.90;;;;;;;;;;5014192;28;20046;-71
2022/06/01 11:36:18;;;;;;;10.90;7.03;;;;;;;;;;4978886;28;20109;-71
2022/06/01 11:39:05;;;;;;;10.93;9.20;;;;;;;;;;5012729;28;20088;-71
2022/06/01 11:41:37;;;;;;;11.00;8.68;;;;;;;;;;5014688;28;20057;-71
2022/06/01 11:44:14;;;;;;;7.90;7.10;;;;;;;;;;5015712;28;20057;-70
2022/06/01 11:47:15;;;;;;;12.48;8.10;;;;;;;;;;5014370;28;20141;-71
2022/06/01 11:50:19;;;;;;;11.63;8.18;;;;;;;;;;4984076;28;20053;-71
2022/06/01 11:53:00;;;;;;;8.48;5.85;;;;;;;;;;5015104;28;20489;-71
2022/06/01 11:55:34;;;;;;;11.50;7.38;;;;;;;;;;5015045;28;20096;-71
2022/06/01 11:58:11;;;;;;;7.97;6.47;;;;;;;;;;5013719;28;20050;-71
2022/06/01 12:00:45;;;;;;;10.05;7.47;;;;;;;;;;5014766;28;20054;-71
2022/06/01 12:03:19;;;;;;;13.45;8.27;;;;;;;;;;5004514;28;20073;-71
2022/06/01 12:06:36;;;;;;;14.05;8.32;;;;;;;;;;5014651;28;20050;-71
2022/06/01 12:09:32;;;;;;;12.15;7.97;;;;;;;;;;5007044;28;20100;-71
2022/06/01 12:12:05;;;;;;;13.50;8.63;;;;;;;;;;5000494;28;20046;-70
2022/06/01 12:14:56;;;;;;;10.52;7.25;;;;;;;;;;5013958;28;20054;-71
2022/06/01 12:17:27;;;;;;;12.25;8.02;;;;;;;;;;5013536;28;20050;-71
2022/06/01 12:20:12;;;;;;;13.32;7.93;;;;;;;;;;5013170;28;20058;-70
2022/06/01 12:28:57;;;;;;;10.20;8.02;;;;;;;;;;4994094;28;20125;-70
2022/06/01 12:31:32;;;;;;;13.50;8.50;;;;;;;;;;4992309;28;20662;-69
2022/06/01 12:34:04;;;;;;;15.48;7.95;;;;;;;;;;4989937;28;20065;-70
2022/06/01 12:36:37;;;;;;;14.43;8.32;;;;;;;;;;4991835;28;20051;-69
2022/06/01 12:39:08;;;;;;;10.57;8.23;;;;;;;;;;4992229;28;20046;-69
2022/06/01 12:41:40;;;;;;;10.38;7.32;;;;;;;;;;4993377;28;20462;-71
2022/06/01 12:44:10;;;;;;;13.68;7.90;;;;;;;;;;4993286;28;20425;-70
2022/06/01 12:46:45;;;;;;;15.75;8.30;;;;;;;;;;4993816;28;20054;-69
2022/06/01 12:49:45;;;;;;;13.15;9.63;;;;;;;;;;4994054;28;20637;-70
2022/06/01 12:52:26;;;;;;;13.70;8.30;;;;;;;;;;4940300;28;20050;-69
2022/06/01 12:55:00;;;;;;;10.57;7.82;;;;;;;;;;4993874;28;20061;-69
2022/06/01 12:57:54;;;;;;;11.73;8.07;;;;;;;;;;4992927;28;20414;-70
2022/06/01 13:00:32;;;;;;;11.48;9.68;;;;;;;;;;4992277;28;20054;-69
2022/06/01 13:03:11;;;;;;;12.13;8.23;;;;;;;;;;4993211;28;20053;-69
2022/06/01 13:05:46;;;;;;;11.02;9.02;;;;;;;;;;4991954;28;20050;-68
2022/06/01 13:08:40;;;;;;;12.90;8.75;;;;;;;;;;4991517;28;20054;-68
2022/06/01 13:11:19;;;;;;;20.02;8.93;;;;;;;;;;4991314;28;20508;-68
2022/06/01 13:13:48;;;;;;;14.13;7.68;;;;;;;;;;5007291;28;20413;-68
2022/06/01 13:16:21;;;;;;;21.25;7.20;;;;;;;;;;4992685;28;20050;-68
2022/06/01 13:18:54;;;;;;;21.67;10.55;;;;;;;;;;4992652;28;20054;-68
2022/06/01 13:21:35;;;;;;;60.45;11.95;;;;;;;;;;4992872;28;20056;-68
2022/06/01 13:24:07;;;;;;;18.50;9.07;;;;;;;;;;5007512;28;20065;-68
2022/06/01 13:27:14;;;;;;;15.27;9.23;;;;;;;;;;5007604;28;20086;-68
2022/06/01 13:29:48;;;;;;;12.70;9.30;;;;;;;;;;4990300;28;20458;-69
2022/06/01 13:32:19;;;;;;;17.77;9.00;;;;;;;;;;4992692;28;20046;-69
2022/06/01 13:34:53;;;;;;;14.38;9.35;;;;;;;;;;4990282;28;20378;-68
2022/06/01 13:37:26;;;;;;;12.88;10.27;;;;;;;;;;4992504;28;20042;-69
2022/06/01 13:40:03;;;;;;;13.60;9.25;;;;;;;;;;4992848;28;20105;-68
2022/06/01 13:42:57;;;;;;;13.68;7.85;;;;;;;;;;4992543;28;20100;-68
2022/06/01 13:45:37;;;;;;;13.35;9.98;;;;;;;;;;4986121;28;20066;-68
2022/06/01 13:48:16;;;;;;;14.60;7.78;;;;;;;;;;4992810;28;20053;-68
2022/06/01 13:50:53;;;;;;;15.63;7.95;;;;;;;;;;4991256;28;20517;-67
2022/06/01 13:53:32;;;;;;;12.10;8.23;;;;;;;;;;4992984;28;20412;-68
2022/06/01 13:56:33;;;;;;;12.85;8.57;;;;;;;;;;4990252;28;20117;-68
2022/06/01 13:59:11;;;;;;;16.90;8.80;;;;;;;;;;4989705;28;20050;-68
2022/06/01 14:01:51;;;;;;;11.45;8.60;;;;;;;;;;4991726;28;20038;-68
2022/06/01 14:04:41;;;;;;;10.13;8.82;;;;;;;;;;5007528;28;20050;-68
2022/06/01 14:07:13;;;;;;;14.27;8.38;;;;;;;;;;4992628;28;20050;-68
2022/06/01 14:09:50;;;;;;;;;;;;;;;;;;4990596;28;20506;-68
2022/06/01 14:12:20;;;;;;;9.85;7.38;;;;;;;;;;4992535;28;19968;-69
2022/06/01 14:14:53;;;;;;;11.05;7.32;;;;;;;;;;5007640;28;20054;-68
2022/06/01 14:17:25;;;;;;;10.90;8.25;;;;;;;;;;5007227;28;20058;-69
2022/06/01 14:19:53;;;;;;;17.88;8.13;;;;;;;;;;5007101;28;20087;-69
2022/06/01 14:22:24;;;;;;;13.77;7.55;;;;;;;;;;4991784;28;20101;-69
2022/06/01 14:30:31;;;;;;;10.90;7.75;;;;;;;;;;5015363;28;20478;-70
2022/06/01 14:33:01;;;;;;;13.93;6.95;;;;;;;;;;5014772;28;20236;-69
2022/06/01 14:35:33;;;;;;;11.65;6.10;;;;;;;;;;5015547;28;20505;-69
2022/06/01 14:38:06;;;;;;;9.00;5.55;;;;;;;;;;5013814;28;20045;-69
2022/06/01 14:40:36;;;;;;;16.05;6.18;;;;;;;;;;5015740;28;20041;-68
2022/06/01 14:43:07;;;;;;;8.30;6.22;;;;;;;;;;5015218;28;20042;-69
2022/06/01 14:45:37;;;;;;;11.63;6.10;;;;;;;;;;5013996;28;20486;-68
2022/06/01 14:48:07;;;;;;;10.35;6.95;;;;;;;;;;5015503;28;20046;-68
2022/06/01 14:50:38;;;;;;;10.75;7.00;;;;;;;;;;5014686;28;20046;-69
2022/06/01 14:53:20;;;;;;;13.85;7.15;;;;;;;;;;5015308;28;20045;-69
2022/06/01 14:55:51;;;;;;;6.70;5.70;;;;;;;;;;5013002;28;20396;-69
2022/06/01 14:58:20;;;;;;;12.50;6.95;;;;;;;;;;5013829;28;20054;-69
2022/06/01 15:00:51;;;;;;;13.68;6.07;;;;;;;;;;5014050;28;20057;-68
2022/06/01 15:03:30;;;;;;;12.23;6.57;;;;;;;;;;5014331;28;20064;-69
2022/06/01 15:06:01;;;;;;;14.13;7.85;;;;;;;;;;4997818;28;20050;-68
2022/06/01 15:08:32;;;;;;;10.68;5.88;;;;;;;;;;5014409;28;20061;-69
2022/06/01 15:11:02;;;;;;;13.45;7.38;;;;;;;;;;5013835;28;20052;-69
2022/06/01 15:13:31;;;;;;;14.40;7.22;;;;;;;;;;5011950;28;20125;-69
2022/06/01 15:16:02;;;;;;;14.10;6.57;;;;;;;;;;5014859;28;20099;-68
2022/06/01 15:18:37;;;;;;;8.75;6.65;;;;;;;;;;5014679;28;20052;-68
2022/06/01 15:21:07;;;;;;;10.93;5.90;;;;;;;;;;5013522;28;20045;-68
2022/06/01 15:23:37;;;;;;;11.25;5.97;;;;;;;;;;5012693;28;20062;-66
2022/06/01 15:26:07;;;;;;;7.75;6.00;;;;;;;;;;5013157;28;20045;-66
2022/06/01 15:28:37;;;;;;;11.57;6.50;;;;;;;;;;5011388;28;20053;-69
2022/06/01 15:39:39;;;;;;;10.32;6.65;;;;;;;;;;4996066;28;20050;-66
2022/06/01 15:42:14;;;;;;;11.23;6.65;;;;;;;;;;5012137;28;20064;-67
2022/06/01 15:44:43;;;;;;;11.63;6.07;;;;;;;;;;5012472;28;20057;-67
2022/06/01 15:47:17;;;;;;;11.30;6.90;;;;;;;;;;5010409;28;20137;-69
2022/06/01 15:49:45;;;;;;;7.45;6.47;;;;;;;;;;4996590;28;20111;-69
2022/06/01 15:52:18;;;;;;;9.68;6.03;;;;;;;;;;5012202;28;20050;-68